Ivan Shevchuk

Chefscout - Kryvbas
4 Apr 2027
Sonntag
Verarbeitung

Persönlichkeit

Anpassungsfähigkeit (2) Ehrgeiz (14) Kontroverse (10) Loyalität (15) Druck (20) Professionalität (12) Fairness (5) Temperament (14)

Profil

Trainerstil Demokratisch
Lizenz Kontinentale C
Entschlossenheit 10
Menschenführung 3
Motivation 8
Disziplin 11
Arbeitszufriedenheit
68%
Ermüdung
0%
Rolle Chefscout
Gehalt 23.1K p/W
Vertrag 14.03.2030

Leistung

Verhalten Gut
Trainingseffektivität
25%
Spielerentwicklung
25%
Verletzungsprävention
15%
Taktische Umsetzung
55%

Letzte Ereignisse

Spieler begutachtet jetzt
Nahm an einer Scouting-Besprechung teil jetzt
Empfahl ein Transferziel jetzt
Spieler begutachtet jetzt
Spieler begutachtet jetzt
Spieler begutachtet 7T her
Spieler begutachtet 7T her
Spieler begutachtet 7T her

Aktuell beobachtet

142
Spieler Verein Status Fähigkeit Vertrauen Beobachtet Zuletzt beobachtet Letzte Stimme
Andrii Riznyk Ahrobiznes Aktiv 97 / 90 40% 1 03.04.2027 -
Harry Smith Barnet Aktiv 96 / 92 40% 1 03.04.2027 -
Danylo Honcharuk Probiy Aktiv 88 / 83 40% 1 03.04.2027 -
Hlompho Modiba Black Aces Aktiv 105 / 98 40% 2 02.04.2027 -
Pylyp Budkivskyi Zorya Aktiv 120 / 118 40% 3 02.04.2027 -
Kwadwo Obeng Junior Heart of Lions Aktiv 86 / 70 40% 2 02.04.2027 -
Peter Itodo Metalist Aktiv 117 / 115 40% 3 01.04.2027 -
Federico Di Francesco Catanzaro Aktiv 114 / 116 40% 1 01.04.2027 -
Dmytro Shastal Livyi Bereh Aktiv 109 / 104 40% 1 01.04.2027 -
Matty Stevens AFC Wimbledon Aktiv 112 / 102 40% 3 30.03.2027 -
Shayne Lavery Cambridge United Aktiv 112 / 98 40% 2 30.03.2027 -
Claudio Morra Vicenza Aktiv 104 / 115 40% 1 30.03.2027 -
Samuel Julies University of Pretoria Aktiv 87 / 108 40% 2 29.03.2027 -
Bohdan Mohylnyi Inhulets Aktiv 95 / 78 40% 1 29.03.2027 -
Malick Traoré Onze Createurs Aktiv 88 / 94 40% 1 29.03.2027 -
Midana Cassamá Portimonense Aktiv 95 / 111 40% 1 28.03.2027 -
Gianluca Caprari Padova Aktiv 123 / 122 40% 1 28.03.2027 -
Danyil Alefirenko Chornomorets Aktiv 115 / 98 40% 5 27.03.2027 -
Matteo Cortesi Arezzo Aktiv 101 / 97 40% 1 27.03.2027 -
Lamine Diakité Djoliba Aktiv 109 / 93 40% 2 26.03.2027 -
Uriël Van Aalst Willem II Aktiv 98 / 109 40% 1 26.03.2027 -
Ibrahim Nurudeen Medeama Aktiv 85 / 72 40% 1 26.03.2027 -
Amos Inusah Wa All Stars Aktiv 124 / 99 40% 1 25.03.2027 -
Lorenzo Insigne Sampdoria Aktiv 134 / 134 40% 1 25.03.2027 -
Fábio Tavares Newport County Aktiv 101 / 103 40% 1 25.03.2027 -
Kane Drummond Oldham Athletic Aktiv 103 / 87 40% 3 24.03.2027 -
Simone Ianesi Pianese Aktiv 102 / 109 40% 1 24.03.2027 -
Kagiso Malinga Bidvest Wits Aktiv 99 / 105 40% 2 23.03.2027 -
Brandon Hanlan Doncaster Rovers Aktiv 108 / 108 40% 1 23.03.2027 -
Seidu Basit Ashanti Gold Aktiv 87 / 106 40% 1 23.03.2027 -
Johnson Amuzu Berekum Chelsea Aktiv 77 / 85 40% 1 22.03.2027 -
Danny Butterworth Bromley Aktiv 90 / 85 40% 1 22.03.2027 -
Marcus Browne AFC Wimbledon Aktiv 107 / 98 40% 1 21.03.2027 -
Vladyslav Voitsekhovskyi Vorskla Aktiv 90 / 88 40% 1 21.03.2027 -
Rui Costa Port Vale Aktiv 108 / 112 40% 1 21.03.2027 -
Frédéric Maciel CSKA 1948 Aktiv 116 / 103 40% 1 20.03.2027 -
Michael Smith Mansfield Town Aktiv 116 / 114 40% 1 20.03.2027 -
Tyler Walton Tranmere Rovers Aktiv 92 / 89 40% 1 20.03.2027 -
Thomas Agyepong Berekum Chelsea Aktiv 97 / 85 40% 1 16.03.2027 -
Dmytro Shcherbak Montana Aktiv 103 / 99 40% 1 16.03.2027 -
Vladyslav Vakula Obolon Aktiv 105 / 106 40% 2 15.03.2027 -
Denys Rezepov Nyva Aktiv 92 / 89 40% 1 15.03.2027 -
Aaron Drinan Swindon Town Aktiv 103 / 98 40% 1 14.03.2027 -
Giuseppe Panico Foggia Aktiv 112 / 113 40% 1 14.03.2027 -
Papa Ndiaga Yade Oleksandriya Aktiv 115 / 99 40% 3 13.03.2027 -
Peter Shalulile Mamelodi Sundowns Aktiv 139 / 122 40% 3 13.03.2027 -
Yaroslav Karabin Karpaty Aktiv 111 / 110 40% 2 12.03.2027 -
Carlos Paraco Metalist Aktiv 121 / 109 40% 2 11.03.2027 -
Solly Khunyedi Bloemfontein Celtic Aktiv 96 / 100 40% 2 11.03.2027 -
Freddie Draper Lincoln City Aktiv 101 / 105 40% 1 11.03.2027 -
Mykola Haiduchyk Polissia Aktiv 123 / 101 40% 3 10.03.2027 -
Andrii Boriachuk Nyva Aktiv 108 / 101 40% 1 10.03.2027 -
Myroslav Trofymiuk Prykarpattia Aktiv 85 / 87 40% 1 09.03.2027 -
Ekain Orobengoa Real Sociedad Aktiv 104 / 103 40% 1 09.03.2027 -
Gustavo Rigazzi Metalist Aktiv 95 / 79 40% 2 08.03.2027 -
Stephen Humphrys Bradford City Aktiv 114 / 106 40% 1 08.03.2027 -
Volodymyr Odariuk Poltava Aktiv 93 / 99 40% 2 07.03.2027 -
Duván Zapata Torino Aktiv 136 / 137 40% 1 07.03.2027 -
Samuel Tetteh Wa All Stars Aktiv 89 / 89 40% 1 07.03.2027 -
Samuel Amoah Liberty Professionals Aktiv 86 / 99 40% 1 06.03.2027 -
Mario Ravasio Arezzo Aktiv 108 / 118 40% 1 06.03.2027 -
José Martínes CSKA 1948 Aktiv 110 / 101 40% 1 06.03.2027 -
Yurii Klymchuk Kolos Aktiv 122 / 110 40% 4 05.03.2027 -
Conor McAleny Harrogate Town Aktiv 81 / 72 40% 1 02.03.2027 -
Daniele Sorrentino Torres Aktiv 104 / 91 40% 1 01.03.2027 -
Tommaso Biasci Avellino Aktiv 120 / 117 40% 1 28.02.2027 -
Danylo Knysh Victoriia Sumy Aktiv 79 / 76 40% 1 25.02.2027 -
Sam Nombe Milton Keynes Dons Aktiv 102 / 107 40% 1 24.02.2027 -
Franklin Sasere Birkirkara Aktiv 88 / 88 40% 1 24.02.2027 -
Stephen Amankona Aduana Stars Aktiv 82 / 80 40% 1 23.02.2027 -
Anton Savin Podillia Aktiv 101 / 87 65% 1 22.02.2027 Befürworten
Alex Chidomere Vorskla Aktiv 88 / 99 40% 1 22.02.2027 -
Luther Zwane Platinum Stars Aktiv 103 / 106 40% 1 22.02.2027 -
Elliott List Northampton Town Aktiv 100 / 83 40% 1 17.02.2027 -
Kwame Opoku Asante Kotoko Aktiv 86 / 97 40% 1 15.02.2027 -
Tedi Cara LNZ Aktiv 112 / 104 40% 1 15.02.2027 -
Daniel Rivas AVS Aktiv 111 / 116 40% 1 04.02.2027 -
Goodman Mosele Chippa United Aktiv 103 / 102 40% 1 04.02.2027 -
Rio Adébísí Peterborough United Aktiv 92 / 88 40% 1 04.02.2027 -
Denys Pidhurskyi Rukh Aktiv 101 / 111 40% 1 03.02.2027 -
Bryan Hein Botev Plovdiv Aktiv 112 / 104 40% 1 03.02.2027 -
Borys Krushynskyi Polissia Aktiv 107 / 110 40% 1 03.02.2027 -
Nazariy Muravskyy LNZ Aktiv 102 / 116 40% 1 02.02.2027 -
Vitalii Kholod Karpaty Aktiv 107 / 104 40% 1 02.02.2027 -
Jack Currie Oxford United Aktiv 116 / 113 40% 1 02.02.2027 -
Luka Stankovski Kolos Aktiv 114 / 100 40% 1 31.01.2027 -
Siphamandla Ncanana Maritzburg United Aktiv 98 / 106 40% 1 31.01.2027 -
Konstantinos Stamoulis Veres Aktiv 100 / 107 40% 3 30.01.2027 -
Shota Nonikashvili LNZ Aktiv 100 / 110 40% 1 30.01.2027 -
Kyle John Port Vale Aktiv 102 / 112 40% 1 28.01.2027 -
Fezile Gcaba Maritzburg United Aktiv 102 / 93 40% 1 28.01.2027 -
Martin Expérience AS Nancy Aktiv 113 / 109 40% 1 28.01.2027 -
Oleksandr Klymets Epicentr Aktiv 100 / 100 40% 1 28.01.2027 -
Erick Ngcobo Black Aces Aktiv 117 / 112 40% 4 27.01.2027 -
Artem Kulakovskyi Obolon Aktiv 106 / 105 40% 1 27.01.2027 -
Brooklyn Poggenpoel Maritzburg United Aktiv 94 / 121 40% 1 27.01.2027 -
Lindon Emërllahu Polissia Aktiv 115 / 122 40% 2 26.01.2027 -
Nikola Savić Slavia Sofia Aktiv 102 / 102 40% 1 26.01.2027 -
Jordan Zorya Abgelehnt 121 / 115 40% 2 24.01.2027 Mehr Infos nötig
Bradley Cross Kaizer Chiefs Abgelehnt 111 / 92 40% 1 24.01.2027 Mehr Infos nötig
Alistair Smith AFC Wimbledon Abgelehnt 102 / 95 40% 1 24.01.2027 Mehr Infos nötig
Jay Matete Milton Keynes Dons Abgelehnt 109 / 107 40% 1 05.01.2027 Mehr Infos nötig
Kristiyan Stoyanov Slavia Sofia Abgelehnt 107 / 106 40% 1 05.01.2027 Mehr Infos nötig
Siyanda Msani University of Pretoria Abgelehnt 107 / 111 40% 1 04.01.2027 Mehr Infos nötig
Diego Medina CSKA 1948 Abgelehnt 117 / 113 40% 1 04.01.2027 Mehr Infos nötig
Danil Skorko Oleksandriya Aktiv 100 / 102 40% 2 16.12.2026 -
Illia Krupskyi Metalist Aktiv 124 / 112 40% 1 16.12.2026 -
Fernando Henrique Oleksandriya Aktiv 98 / 109 40% 1 16.12.2026 -
Nicolás Arévalo Metalist Aktiv 123 / 121 40% 1 15.12.2026 -
Rafael Profini Metalist Aktiv 116 / 109 40% 1 15.12.2026 -
Géza Dávid Turi Grimsby Town Aktiv 105 / 89 40% 1 15.12.2026 -
Tomasz Wójtowicz Lechia Aktiv 114 / 104 40% 1 14.12.2026 -
Alen Kurtalić Floriana Aktiv 106 / 87 40% 1 12.12.2026 -
Oleksandr Martyniuk Metalist Aktiv 123 / 120 40% 1 12.12.2026 -
Maksym Chekh Obolon Aktiv 106 / 92 40% 1 12.12.2026 -
Masindi Nemtajela Orlando Pirates Aktiv 122 / 94 40% 1 07.12.2026 -
Sandro Cruz Slovan Bratislava Aktiv 103 / 117 40% 1 07.12.2026 -
Thauan Lara Portimonense Aktiv 102 / 118 40% 1 07.12.2026 -
Moha Karpaty Aktiv 120 / 116 40% 1 03.11.2026 -
Kelland Watts Cambridge United Aktiv 96 / 96 40% 1 03.11.2026 -
Semen Vovchenko Veres Aktiv 99 / 93 40% 1 02.11.2026 -
Johnly Yfeko Exeter City Aktiv 110 / 112 40% 1 02.11.2026 -
Nduduzo Mhlongo Golden Arrows Aktiv 107 / 99 40% 1 02.11.2026 -
Mandla Dala SuperSport United Aktiv 107 / 113 40% 1 08.10.2026 -
Charlie Webster Burton Albion Aktiv 107 / 108 40% 1 07.10.2026 -
Petro Lutsiv Metalist Aktiv 100 / 93 40% 1 05.10.2026 -
Ognjen Gašević CSKA 1948 Aktiv 117 / 106 40% 1 05.10.2026 -
Oleksandr Yatsyk Metalist Aktiv 105 / 121 40% 1 11.09.2026 -
Dejan Popara Zorya Aktiv 114 / 100 40% 1 11.09.2026 -
Facundo Silvestre Uruguay Montevideo Aktiv 106 / 104 40% 1 11.09.2026 -
Mathias Tønnessen Tromso Aktiv 100 / 120 40% 1 08.09.2026 -
Oleksandr Romanchuk Universitatea Craiova Aktiv 132 / 113 40% 1 08.09.2026 -
Illia Kvasnytsia Livyi Bereh Aktiv 117 / 120 30% 1 / 1m 26.08.2026 -
Mauricio Márquez Caracas Aktiv 97 / 103 40% 1 17.08.2026 -
Achraf Bencharki Al Ahly Aktiv 121 / 126 40% 1 17.08.2026 -
Pablo Ceppelini Penarol Aktiv 120 / 122 40% 1 06.08.2026 -
Daniel Kyerewaa Reading Aktiv 108 / 108 40% 1 04.08.2026 -
Vitalii Dakhnovskyi Bukovyna Aktiv 98 / 100 40% 1 04.08.2026 -
Ramiro Ruiz Rodríguez Atlético Tucumán Aktiv 124 / 132 40% 1 03.08.2026 -
Ronaldo Peña Deportivo Lara Aktiv 113 / 98 40% 1 03.08.2026 -
Iván Tapia Barracas Central Aktiv 112 / 108 40% 1 02.08.2026 -
Alejandro Cabrera Estudiantes Aktiv 128 / 129 40% 1 02.08.2026 -